地図

経路データ

SID SEASON NUMBER BASIN SUBBASIN NAME ISO_TIME NATURE LAT LON WMO_WIND WMO_PRES WMO_AGENCY TRACK_TYPE DIST2LAND LANDFALL IFLAG USA_AGENCY USA_ATCF_ID USA_LAT USA_LON USA_RECORD USA_STATUS USA_WIND USA_PRES USA_SSHS USA_R34_NE USA_R34_SE USA_R34_SW USA_R34_NW USA_R50_NE USA_R50_SE USA_R50_SW USA_R50_NW USA_R64_NE USA_R64_SE USA_R64_SW USA_R64_NW USA_POCI USA_ROCI USA_RMW USA_EYE TOKYO_LAT TOKYO_LON TOKYO_GRADE TOKYO_WIND TOKYO_PRES TOKYO_R50_DIR TOKYO_R50_LONG TOKYO_R50_SHORT TOKYO_R30_DIR TOKYO_R30_LONG TOKYO_R30_SHORT TOKYO_LAND CMA_LAT CMA_LON CMA_CAT CMA_WIND CMA_PRES HKO_LAT HKO_LON HKO_CAT HKO_WIND HKO_PRES NEWDELHI_LAT NEWDELHI_LON NEWDELHI_GRADE NEWDELHI_WIND NEWDELHI_PRES NEWDELHI_CI NEWDELHI_DP NEWDELHI_POCI REUNION_LAT REUNION_LON REUNION_TYPE REUNION_WIND REUNION_PRES REUNION_TNUM REUNION_CI REUNION_RMW REUNION_R34_NE REUNION_R34_SE REUNION_R34_SW REUNION_R34_NW REUNION_R50_NE REUNION_R50_SE REUNION_R50_SW REUNION_R50_NW REUNION_R64_NE REUNION_R64_SE REUNION_R64_SW REUNION_R64_NW BOM_LAT BOM_LON BOM_TYPE BOM_WIND BOM_PRES BOM_TNUM BOM_CI BOM_RMW BOM_R34_NE BOM_R34_SE BOM_R34_SW BOM_R34_NW BOM_R50_NE BOM_R50_SE BOM_R50_SW BOM_R50_NW BOM_R64_NE BOM_R64_SE BOM_R64_SW BOM_R64_NW BOM_ROCI BOM_POCI BOM_EYE BOM_POS_METHOD BOM_PRES_METHOD NADI_LAT NADI_LON NADI_CAT NADI_WIND NADI_PRES WELLINGTON_LAT WELLINGTON_LON WELLINGTON_WIND WELLINGTON_PRES DS824_LAT DS824_LON DS824_STAGE DS824_WIND DS824_PRES TD9636_LAT TD9636_LON TD9636_STAGE TD9636_WIND TD9636_PRES TD9635_LAT TD9635_LON TD9635_WIND TD9635_PRES TD9635_ROCI NEUMANN_LAT NEUMANN_LON NEUMANN_CLASS NEUMANN_WIND NEUMANN_PRES MLC_LAT MLC_LON MLC_CLASS MLC_WIND MLC_PRES USA_GUST BOM_GUST BOM_GUST_PER REUNION_GUST REUNION_GUST_PER USA_SEAHGT USA_SEARAD_NE USA_SEARAD_SE USA_SEARAD_SW USA_SEARAD_NW STORM_SPEED STORM_DIR
1930060S09101 1930 15 SI WA NOT_NAMED 1930-02-28 18:00:00 NR -9.30000 100.700 main 569 569 __________O___ -1 -9.30000 100.700 7 3 224
1930060S09101 1930 15 SI WA NOT_NAMED 1930-02-28 21:00:00 NR -9.39376 100.608 main 584 584 __________P___ -1 -9.39376 100.608 7 3 224
1930060S09101 1930 15 SI WA NOT_NAMED 1930-03-01 00:00:00 NR -9.49000 100.513 main 599 599 __________P___ -1 -9.49000 100.513 7 3 225
1930060S09101 1930 15 SI WA NOT_NAMED 1930-03-01 03:00:00 NR -9.59125 100.411 main 614 614 __________P___ -1 -9.59125 100.411 7 1 224
1930060S09101 1930 15 SI WA NOT_NAMED 1930-03-01 06:00:00 NR -9.58000 100.420 main 614 614 _____O____O___ -1 -9.10000 100.900 99 9.90000 -9.70000 100.300 7 0 0
1930060S09101 1930 15 SI WA NOT_NAMED 1930-03-01 09:00:00 NR -9.61826 100.384 main 614 614 _____P____P___ -1 -9.21914 100.795 99 -9.81782 100.178 7 1 224
1930060S09101 1930 15 SI WA NOT_NAMED 1930-03-01 12:00:00 NR -9.68328 100.325 main 629 629 _____P____P___ -1 -9.33764 100.691 99 -9.94251 100.050 7 2 220
1930060S09101 1930 15 SI WA NOT_NAMED 1930-03-01 15:00:00 NR -9.76290 100.255 main 635 635 _____P____P___ -1 -9.45486 100.588 99 -10.0709 99.9219 7 3 222
1930060S09101 1930 15 SI WA NOT_NAMED 1930-03-01 18:00:00 NR -9.88509 100.143 main 660 660 _____P____O___ -1 -9.57017 100.486 99 -10.2000 99.8000 7 3 221
1930060S09101 1930 15 SI WA NOT_NAMED 1930-03-01 21:00:00 NR -9.99786 100.047 main 675 675 _____P____P___ -1 -9.68297 100.385 99 -10.3127 99.7089 7 3 219
1930060S09101 1930 15 SI WA NOT_NAMED 1930-03-02 00:00:00 NR -10.1100 99.9548 main 681 681 _____P____P___ -1 -9.79262 100.287 99 -10.4274 99.6223 7 3 219
1930060S09101 1930 15 SI WA NOT_NAMED 1930-03-02 03:00:00 NR -10.2259 99.8583 main 696 696 _____P____P___ -1 -9.89851 100.192 99 -10.5534 99.5245 7 3 220
1930060S09101 1930 15 SI WA NOT_NAMED 1930-03-02 06:00:00 NR -10.3500 99.7500 main 711 718 _____O____O___ -1 -10.0000 100.100 99 9.90000 -10.7000 99.4000 7 4 222
1930060S09101 1930 15 SI WA NOT_NAMED 1930-03-02 09:00:00 NR -10.4878 99.6180 main 742 742 _____P____P___ -1 -10.0971 100.011 99 -10.8785 99.2248 7 4 224
1930060S09101 1930 15 SI WA NOT_NAMED 1930-03-02 12:00:00 NR -10.6350 99.4733 main 757 757 _____P____P___ -1 -10.1924 99.9239 99 -11.0776 99.0226 7 4 224
1930060S09101 1930 15 SI WA NOT_NAMED 1930-03-02 15:00:00 NR -10.7884 99.3224 main 788 788 _____P____P___ -1 -10.2889 99.8357 99 -11.2879 98.8091 7 4 224
1930060S09101 1930 15 SI WA NOT_NAMED 1930-03-02 18:00:00 NR -10.9449 99.1721 main 803 803 _____P____O___ -1 -10.3898 99.7443 99 -11.5000 98.6000 7 4 223
1930060S09101 1930 15 SI WA NOT_NAMED 1930-03-02 21:00:00 NR -11.1011 99.0265 main 834 834 _____P____P___ -1 -10.4982 99.6473 99 -11.7041 98.4056 7 4 222
1930060S09101 1930 15 SI WA NOT_NAMED 1930-03-03 00:00:00 NR -11.2624 98.8813 main 856 856 _____P____P___ -1 -10.6173 99.5425 99 -11.9075 98.2200 7 4 221
1930060S09101 1930 15 SI WA NOT_NAMED 1930-03-03 03:00:00 NR -11.4287 98.7385 main 880 880 _____P____P___ -1 -10.7502 99.4275 99 -12.1072 98.0494 7 4 219
1930060S09101 1930 15 SI WA NOT_NAMED 1930-03-03 06:00:00 NR -11.6000 98.6000 main 902 902 _____O____O___ -1 -10.9000 99.3000 99 9.90000 -12.3000 97.9000 7 4 217
1930060S09101 1930 15 SI WA NOT_NAMED 1930-03-03 09:00:00 NR -11.7856 98.4649 main 924 924 _____P____P___ -1 -11.0850 99.1474 99 -12.4862 97.7824 7 5 215
1930060S09101 1930 15 SI WA NOT_NAMED 1930-03-03 12:00:00 NR -11.9764 98.3331 main 955 955 _____P____P___ -1 -11.2880 98.9815 99 -12.6649 97.6848 7 5 214
1930060S09101 1930 15 SI WA NOT_NAMED 1930-03-03 15:00:00 NR -12.1701 98.2002 main 977 977 _____P____P___ -1 -11.5040 98.8056 99 -12.8362 97.5949 7 5 214
1930060S09101 1930 15 SI WA NOT_NAMED 1930-03-03 18:00:00 NR -12.3639 98.0616 main 999 999 _____P____O___ -1 -11.7278 98.6232 99 -13.0000 97.5000 7 5 216
1930060S09101 1930 15 SI WA NOT_NAMED 1930-03-03 21:00:00 NR -12.5555 97.9142 main 1030 1030 _____P____P___ -1 -11.9544 98.4380 99 -13.1566 97.3904 7 4 217
1930060S09101 1930 15 SI WA NOT_NAMED 1930-03-04 00:00:00 NR -12.6625 97.8309 main 1046 1046 _____P____P___ -1 -12.1786 98.2533 99 -13.3076 97.2677 7 2 218
1930060S09101 1930 15 SI WA NOT_NAMED 1930-03-04 03:00:00 NR -12.7486 97.7606 main 1046 1046 _____P____P___ -1 -12.3955 98.0728 99 -13.4548 97.1361 7 2 217
1930060S09101 1930 15 SI WA NOT_NAMED 1930-03-04 06:00:00 NR -12.8000 97.7200 main 1061 1061 _____O____O___ -1 -12.6000 97.9000 99 9.90000 -13.6000 97.0000 7 0 0
1930060S09101 1930 15 SI WA NOT_NAMED 1930-03-04 09:00:00 NR -12.7732 97.7407 main 1061 1061 _____P________ -1 -12.7732 97.7407 99 7 2 224
1930060S09101 1930 15 SI WA NOT_NAMED 1930-03-04 12:00:00 NR -12.9358 97.5868 main 1077 1077 _____P________ -1 -12.9358 97.5868 99 7 4 223
1930060S09101 1930 15 SI WA NOT_NAMED 1930-03-04 15:00:00 NR -13.0899 97.4388 main 1108 1108 _____P________ -1 -13.0899 97.4388 99 7 4 223
1930060S09101 1930 15 SI WA NOT_NAMED 1930-03-04 18:00:00 NR -13.2374 97.2971 main 1123 1123 _____P________ -1 -13.2374 97.2971 99 4 223
1930060S09101 1930 15 SI WA NOT_NAMED 1930-03-04 21:00:00 NR -13.3802 97.1619 main 1146 1146 _____P________ -1 -13.3802 97.1619 99 4 222
1930060S09101 1930 15 SI WA NOT_NAMED 1930-03-05 00:00:00 NR -13.5202 97.0338 main 1170 1170 _____P________ -1 -13.5202 97.0338 99 4 221
1930060S09101 1930 15 SI WA NOT_NAMED 1930-03-05 03:00:00 NR -13.6595 96.9130 main 1192 1192 _____P________ -1 -13.6595 96.9130 99 4 219
1930060S09101 1930 15 SI WA NOT_NAMED 1930-03-05 06:00:00 NR -13.8000 96.8000 main 1208 1208 _____O________ -1 -13.8000 96.8000 99 9.90000 4 217
1930060S09101 1930 15 SI WA NOT_NAMED 1930-03-05 09:00:00 NR -13.9432 96.6949 main 1223 1223 _____P________ -1 -13.9432 96.6949 99 4 214
1930060S09101 1930 15 SI WA NOT_NAMED 1930-03-05 12:00:00 NR -14.0891 96.5968 main 1246 1246 _____P________ -1 -14.0891 96.5968 99 3 212
1930060S09101 1930 15 SI WA NOT_NAMED 1930-03-05 15:00:00 NR -14.2374 96.5048 main 1261 1261 _____P________ -1 -14.2374 96.5048 99 3 210
1930060S09101 1930 15 SI WA NOT_NAMED 1930-03-05 18:00:00 NR -14.3876 96.4179 main 1284 1284 _____P________ -1 -14.3876 96.4179 99 3 208
1930060S09101 1930 15 SI WA NOT_NAMED 1930-03-05 21:00:00 NR -14.5393 96.3350 main 1299 1299 _____P________ -1 -14.5393 96.3350 99 3 207
1930060S09101 1930 15 SI WA NOT_NAMED 1930-03-06 00:00:00 NR -14.6923 96.2550 main 1314 1314 _____P________ -1 -14.6923 96.2550 99 3 207
1930060S09101 1930 15 SI WA NOT_NAMED 1930-03-06 03:00:00 NR -14.8459 96.1771 main 1329 1329 _____P________ -1 -14.8459 96.1771 99 3 206
1930060S09101 1930 15 SI WA NOT_NAMED 1930-03-06 06:00:00 NR -15.0000 96.1000 main 1352 _____O________ -1 -15.0000 96.1000 99 9.90000 3 207

IBTrACS Databaseについて

本データベースは、米国NOAAが公開する1842年以降の世界の熱帯低気圧のベストトラックデータアーカイブInternational Best Track Archive for Climate Stewardship (IBTrACS)を、ウェブで閲覧しやすい形式に変換したものです。

最終更新日:2021-11-26